Time;durP1;ratioP1;P1;durP2;ratioP2;P2;SDS_P1;SDS_P2;PMS_P1;PMS_P2;Temp;Humidity;BMP_temperature;BMP_pressure;BME280_temperature;BME280_humidity;BME280_pressure;Samples;Min_cycle;Max_cycle;Signal;HPM_P1;HPM_P2
2023/08/05 00:00:43;;;;;;;3.97;1.65;;;18.30;93.40;;;;;;5017037;28;20021;-80
2023/08/05 00:03:08;;;;;;;3.22;1.60;;;18.30;93.40;;;;;;5044889;28;20473;-81
2023/08/05 00:05:33;;;;;;;3.42;1.45;;;18.30;93.30;;;;;;5035841;28;20113;-82
2023/08/05 00:07:59;;;;;;;3.17;1.70;;;18.30;93.20;;;;;;5047290;28;20473;-82
2023/08/05 00:10:25;;;;;;;2.88;1.52;;;18.30;93.20;;;;;;5056889;28;20040;-80
2023/08/05 00:12:50;;;;;;;4.20;1.70;;;18.40;93.10;;;;;;5075327;28;20036;-80
2023/08/05 00:15:16;;;;;;;2.42;1.40;;;18.40;93.10;;;;;;5035697;28;20432;-82
2023/08/05 00:17:41;;;;;;;3.05;1.48;;;18.40;93.10;;;;;;5034804;28;20022;-80
2023/08/05 00:20:12;;;;;;;3.42;1.50;;;18.40;93.00;;;;;;5026911;28;20021;-80
2023/08/05 00:22:37;;;;;;;2.88;1.30;;;18.40;93.00;;;;;;5041882;28;20105;-80
2023/08/05 00:25:03;;;;;;;2.83;1.60;;;18.40;93.00;;;;;;5018218;28;20061;-80
2023/08/05 00:27:29;;;;;;;2.97;1.52;;;18.30;93.00;;;;;;5039460;28;20170;-80
2023/08/05 00:29:54;;;;;;;3.17;1.30;;;18.40;93.10;;;;;;5056683;28;20119;-80
2023/08/05 00:32:20;;;;;;;2.63;1.50;;;18.40;93.20;;;;;;5038737;28;20036;-80
2023/08/05 00:34:45;;;;;;;2.85;1.55;;;18.30;93.20;;;;;;5054252;28;20037;-80
2023/08/05 00:37:11;;;;;;;2.22;1.42;;;18.30;93.20;;;;;;5020342;28;20029;-81
2023/08/05 00:39:36;;;;;;;3.58;1.52;;;18.30;93.30;;;;;;5063757;28;20021;-82
2023/08/05 00:42:02;;;;;;;2.83;1.50;;;18.30;93.30;;;;;;5068977;28;20020;-83
2023/08/05 00:44:27;;;;;;;2.92;1.48;;;18.30;93.40;;;;;;5051976;28;20401;-84
2023/08/05 00:46:53;;;;;;;2.58;1.40;;;18.30;93.40;;;;;;5057747;28;20020;-79
2023/08/05 00:49:19;;;;;;;3.15;1.52;;;18.30;93.40;;;;;;5076700;28;20021;-81
2023/08/05 00:51:45;;;;;;;2.70;1.50;;;18.20;93.40;;;;;;5082822;28;20056;-82
2023/08/05 00:54:11;;;;;;;2.50;1.42;;;18.30;93.50;;;;;;5064917;28;20028;-82
2023/08/05 00:56:37;;;;;;;2.38;1.40;;;18.30;93.50;;;;;;5043383;28;20036;-80
2023/08/05 00:59:02;;;;;;;3.15;1.40;;;18.30;93.50;;;;;;5064979;28;20068;-80
2023/08/05 01:01:28;;;;;;;2.13;1.20;;;18.30;93.50;;;;;;5067609;28;20040;-82
2023/08/05 01:03:53;;;;;;;3.40;1.60;;;18.30;93.50;;;;;;5071559;28;20031;-82
2023/08/05 01:06:20;;;;;;;2.67;1.40;;;18.20;93.50;;;;;;5059906;28;20063;-84
2023/08/05 01:08:47;;;;;;;1.85;1.20;;;18.20;93.50;;;;;;5065712;28;20029;-82
2023/08/05 01:11:13;;;;;;;2.85;1.52;;;18.20;93.50;;;;;;5050015;28;20048;-82
2023/08/05 01:13:42;;;;;;;3.15;1.60;;;18.20;93.50;;;;;;5049615;28;20092;-82
2023/08/05 01:16:07;;;;;;;3.45;1.70;;;18.20;93.50;;;;;;5054546;28;20597;-82
2023/08/05 01:18:36;;;;;;;2.58;1.33;;;18.20;93.50;;;;;;5078119;28;20025;-81
2023/08/05 01:21:03;;;;;;;2.08;1.20;;;18.20;93.50;;;;;;5056983;28;20028;-82
2023/08/05 01:23:36;;;;;;;2.38;1.42;;;18.20;93.50;;;;;;5062375;28;20042;-81
2023/08/05 01:26:03;;;;;;;2.58;1.38;;;18.20;93.50;;;;;;5043695;28;20029;-82
2023/08/05 01:28:29;;;;;;;2.92;1.58;;;18.20;93.50;;;;;;5073870;28;20021;-83
2023/08/05 01:30:56;;;;;;;3.03;1.60;;;18.20;93.50;;;;;;5066895;28;20111;-82
2023/08/05 01:33:22;;;;;;;2.60;1.40;;;18.20;93.50;;;;;;5066111;28;20483;-82
2023/08/05 01:35:48;;;;;;;3.03;1.58;;;18.30;93.40;;;;;;5077207;28;20033;-83
2023/08/05 01:38:14;;;;;;;2.65;1.48;;;18.30;93.40;;;;;;5048618;28;20049;-80
2023/08/05 01:40:40;;;;;;;3.22;1.58;;;18.30;93.30;;;;;;5083260;28;20487;-82
2023/08/05 01:43:05;;;;;;;2.58;1.55;;;18.30;93.20;;;;;;5044151;28;20025;-82
2023/08/05 01:45:31;;;;;;;2.40;1.40;;;18.30;93.10;;;;;;5057113;28;20108;-80
2023/08/05 01:47:56;;;;;;;1.80;1.20;;;18.30;93.10;;;;;;5073660;28;20559;-80
2023/08/05 01:50:23;;;;;;;2.35;1.50;;;18.30;93.00;;;;;;5056850;28;20099;-80
2023/08/05 01:52:49;;;;;;;2.60;1.52;;;18.40;93.00;;;;;;5043147;28;20100;-82
2023/08/05 01:55:14;;;;;;;2.95;1.30;;;18.40;93.00;;;;;;5038886;28;20172;-80
2023/08/05 01:57:40;;;;;;;2.22;1.30;;;18.40;93.00;;;;;;5061983;28;20033;-80
2023/08/05 02:00:06;;;;;;;2.55;1.50;;;18.30;92.90;;;;;;5065772;22;20059;-82
2023/08/05 02:02:32;;;;;;;2.17;1.38;;;18.30;93.00;;;;;;5033239;28;20021;-80
2023/08/05 02:04:57;;;;;;;2.88;1.40;;;18.30;93.00;;;;;;5044827;28;20036;-79
2023/08/05 02:07:23;;;;;;;2.63;1.48;;;18.30;93.10;;;;;;5035537;28;20047;-80
2023/08/05 02:09:48;;;;;;;3.65;1.40;;;18.30;93.10;;;;;;5051963;28;20116;-80
2023/08/05 02:12:14;;;;;;;1.98;1.40;;;18.30;93.20;;;;;;5051276;28;20048;-80
2023/08/05 02:14:39;;;;;;;3.05;1.58;;;18.30;93.20;;;;;;5014961;28;20028;-79
2023/08/05 02:17:05;;;;;;;2.25;1.27;;;18.30;93.30;;;;;;5014795;28;20022;-79
2023/08/05 02:19:30;;;;;;;3.22;1.50;;;18.30;93.30;;;;;;5041532;28;20032;-80
2023/08/05 02:21:56;;;;;;;3.88;1.60;;;18.30;93.30;;;;;;5037347;28;20029;-80
2023/08/05 02:24:21;;;;;;;2.60;1.38;;;18.30;93.40;;;;;;5014674;28;20025;-80
2023/08/05 02:26:47;;;;;;;3.38;1.40;;;18.20;93.40;;;;;;5014434;28;20208;-80
2023/08/05 02:29:12;;;;;;;1.92;1.20;;;18.20;93.30;;;;;;5022445;28;20500;-79
2023/08/05 02:31:38;;;;;;;2.15;1.33;;;18.20;93.40;;;;;;5031995;28;20041;-79
2023/08/05 02:34:03;;;;;;;2.67;1.40;;;18.20;93.40;;;;;;5045111;28;20036;-80
2023/08/05 02:36:29;;;;;;;2.20;1.33;;;18.20;93.40;;;;;;5035800;28;20401;-79
2023/08/05 02:38:54;;;;;;;2.08;1.30;;;18.20;93.40;;;;;;5032675;28;20025;-80
2023/08/05 02:41:20;;;;;;;3.05;1.50;;;18.20;93.40;;;;;;5014521;28;20029;-79
2023/08/05 02:43:45;;;;;;;2.63;1.40;;;18.20;93.40;;;;;;5032123;28;20071;-80
2023/08/05 02:46:11;;;;;;;3.00;1.50;;;18.20;93.40;;;;;;5020480;28;20516;-80
2023/08/05 02:48:36;;;;;;;3.08;1.52;;;18.20;93.40;;;;;;5032903;28;20054;-80
2023/08/05 02:51:02;;;;;;;2.55;1.70;;;18.20;93.40;;;;;;5033774;28;20501;-80
2023/08/05 02:53:28;;;;;;;2.70;1.35;;;18.20;93.40;;;;;;5014241;28;20111;-79
2023/08/05 02:55:54;;;;;;;2.85;1.40;;;18.20;93.40;;;;;;5018524;28;20054;-80
2023/08/05 02:58:19;;;;;;;2.65;1.40;;;18.20;93.40;;;;;;5034029;28;20021;-80
2023/08/05 03:00:46;;;;;;;2.50;1.45;;;18.20;93.40;;;;;;5032931;28;20041;-79
2023/08/05 03:03:12;;;;;;;2.38;1.40;;;18.20;93.40;;;;;;5031708;28;20115;-79
2023/08/05 03:05:38;;;;;;;3.58;1.60;;;18.20;93.40;;;;;;5037263;28;20116;-79
2023/08/05 03:08:04;;;;;;;2.15;1.20;;;18.20;93.40;;;;;;5040779;28;20508;-79
2023/08/05 03:10:29;;;;;;;2.47;1.42;;;18.20;93.40;;;;;;5023702;28;20433;-79
2023/08/05 03:12:55;;;;;;;2.28;1.40;;;18.20;93.40;;;;;;5024904;28;20047;-79
2023/08/05 03:15:21;;;;;;;2.40;1.50;;;18.20;93.30;;;;;;5037267;28;20430;-79
2023/08/05 03:17:46;;;;;;;2.25;1.30;;;18.30;93.20;;;;;;5035560;28;20021;-79
2023/08/05 03:20:34;;;;;;;2.83;1.50;;;18.30;93.20;;;;;;5047829;28;20396;-80
2023/08/05 03:22:59;;;;;;;2.85;1.35;;;18.30;93.10;;;;;;5033997;28;20025;-79
2023/08/05 03:25:26;;;;;;;1.80;1.20;;;18.30;93.00;;;;;;5017409;28;20497;-80
2023/08/05 03:27:51;;;;;;;3.15;1.40;;;18.30;93.00;;;;;;5017383;28;20025;-80
2023/08/05 03:30:18;;;;;;;2.08;1.30;;;18.30;92.90;;;;;;5028787;28;20029;-80
2023/08/05 03:32:46;;;;;;;2.65;1.52;;;18.30;92.90;;;;;;5017348;28;20029;-79
2023/08/05 03:35:12;;;;;;;2.72;1.38;;;18.30;92.90;;;;;;5026563;28;20029;-79
2023/08/05 03:37:37;;;;;;;2.38;1.30;;;18.40;92.90;;;;;;5033714;28;20026;-79
2023/08/05 03:40:04;;;;;;;2.28;1.30;;;18.40;92.90;;;;;;5030731;28;20033;-79
2023/08/05 03:42:30;;;;;;;1.98;1.30;;;18.30;92.90;;;;;;5054692;28;20039;-79
2023/08/05 03:44:56;;;;;;;1.98;1.35;;;18.30;93.00;;;;;;5054588;28;20063;-80
2023/08/05 03:47:21;;;;;;;2.30;1.40;;;18.30;93.00;;;;;;5034494;28;20033;-80
2023/08/05 03:49:47;;;;;;;3.22;1.70;;;18.30;93.10;;;;;;5028199;28;20401;-79
2023/08/05 03:52:13;;;;;;;2.47;1.40;;;18.20;93.10;;;;;;5036060;28;20032;-80
2023/08/05 03:54:39;;;;;;;3.50;1.40;;;18.30;93.20;;;;;;5036555;28;20454;-79
2023/08/05 03:57:08;;;;;;;2.53;1.30;;;18.20;93.20;;;;;;5029339;28;20017;-79
2023/08/05 03:59:34;;;;;;;2.22;1.20;;;18.20;93.20;;;;;;5023150;28;20079;-80
2023/08/05 04:02:00;;;;;;;2.13;1.30;;;18.20;93.30;;;;;;5033454;28;20026;-79
2023/08/05 04:04:26;;;;;;;2.25;1.30;;;18.20;93.30;;;;;;5016779;28;20033;-78
2023/08/05 04:06:51;;;;;;;2.10;1.20;;;18.20;93.30;;;;;;5030192;28;20488;-80
2023/08/05 04:09:19;;;;;;;1.75;1.27;;;18.20;93.30;;;;;;5049360;28;20452;-80
2023/08/05 04:11:45;;;;;;;3.30;1.50;;;18.20;93.30;;;;;;5016715;28;20429;-80
2023/08/05 04:14:11;;;;;;;2.25;1.30;;;18.20;93.30;;;;;;5029002;28;20056;-80
2023/08/05 04:16:37;;;;;;;3.17;1.80;;;18.20;93.30;;;;;;5053722;28;20473;-79
2023/08/05 04:19:03;;;;;;;2.53;1.33;;;18.20;93.30;;;;;;5049453;28;20027;-80
2023/08/05 04:21:35;;;;;;;3.47;1.60;;;18.20;93.30;;;;;;5026889;28;20025;-80
2023/08/05 04:24:01;;;;;;;2.22;1.35;;;18.20;93.30;;;;;;5052934;28;20024;-79
2023/08/05 04:26:27;;;;;;;2.22;1.30;;;18.20;93.30;;;;;;5053728;28;20025;-79
2023/08/05 04:28:52;;;;;;;2.17;1.50;;;18.20;93.30;;;;;;5049026;28;20047;-79
2023/08/05 04:31:18;;;;;;;2.40;1.40;;;18.20;93.40;;;;;;5028125;28;20083;-80
2023/08/05 04:33:44;;;;;;;2.22;1.40;;;18.20;93.30;;;;;;5053585;28;20127;-80
2023/08/05 04:36:09;;;;;;;2.45;1.58;;;18.20;93.30;;;;;;5035838;28;20493;-80
2023/08/05 04:38:35;;;;;;;2.25;1.30;;;18.20;93.30;;;;;;5035584;28;20017;-79
2023/08/05 04:41:00;;;;;;;2.20;1.50;;;18.20;93.30;;;;;;5024713;28;20494;-79
2023/08/05 04:43:26;;;;;;;2.03;1.23;;;18.20;93.30;;;;;;5034538;28;20055;-81
2023/08/05 04:45:51;;;;;;;2.13;1.40;;;18.20;93.30;;;;;;5038185;28;20021;-79
2023/08/05 04:48:17;;;;;;;2.63;1.50;;;18.20;93.30;;;;;;5043741;28;20036;-79
2023/08/05 04:50:43;;;;;;;2.75;1.50;;;18.20;93.30;;;;;;5020855;28;20389;-79
2023/08/05 04:53:09;;;;;;;2.83;1.45;;;18.20;93.20;;;;;;5015921;28;20535;-80
2023/08/05 04:55:34;;;;;;;2.28;1.40;;;18.30;93.20;;;;;;5033340;28;20033;-79
2023/08/05 04:58:01;;;;;;;1.75;1.30;;;18.30;93.10;;;;;;5017842;28;20044;-79
2023/08/05 05:00:26;;;;;;;2.20;1.38;;;18.30;93.00;;;;;;5019448;28;20083;-79
2023/08/05 05:02:52;;;;;;;2.05;1.40;;;18.30;93.00;;;;;;5033028;28;20025;-80
2023/08/05 05:05:18;;;;;;;3.25;1.45;;;18.30;92.90;;;;;;5043185;28;20021;-79
2023/08/05 05:07:43;;;;;;;2.42;1.30;;;18.30;92.90;;;;;;5032048;28;20136;-79
2023/08/05 05:10:09;;;;;;;1.67;1.30;;;18.30;92.80;;;;;;5015397;28;20033;-80
2023/08/05 05:12:34;;;;;;;1.60;1.17;;;18.40;92.80;;;;;;5020128;28;20032;-79
2023/08/05 05:15:00;;;;;;;2.28;1.45;;;18.40;92.80;;;;;;5015375;28;20363;-80
2023/08/05 05:17:32;;;;;;;1.95;1.25;;;18.40;92.80;;;;;;5015474;28;20028;-80
2023/08/05 05:19:57;;;;;;;;;;;18.40;92.80;;;;;;5027394;28;20431;-79
2023/08/05 05:22:23;;;;;;;2.05;1.20;;;18.30;92.80;;;;;;5031791;28;19950;-80
2023/08/05 05:24:50;;;;;;;2.17;1.33;;;18.30;92.90;;;;;;5032742;28;20051;-79
2023/08/05 05:27:17;;;;;;;2.67;1.45;;;18.30;92.80;;;;;;5014797;28;20071;-79
2023/08/05 05:29:43;;;;;;;2.47;1.40;;;18.30;92.90;;;;;;5038530;28;20025;-80
2023/08/05 05:32:09;;;;;;;1.85;1.20;;;18.30;93.00;;;;;;5034944;28;20025;-79
2023/08/05 05:34:35;;;;;;;2.83;1.67;;;18.30;93.00;;;;;;5034824;28;20532;-79
2023/08/05 05:37:00;;;;;;;2.55;1.42;;;18.30;93.00;;;;;;5019419;28;20025;-80
2023/08/05 05:39:26;;;;;;;2.15;1.30;;;18.30;93.00;;;;;;5035272;28;20029;-81
2023/08/05 05:41:51;;;;;;;1.98;1.25;;;18.30;93.00;;;;;;5011887;28;20026;-81
2023/08/05 05:44:17;;;;;;;2.45;1.55;;;18.30;93.00;;;;;;5011926;28;20025;-79
2023/08/05 05:46:43;;;;;;;2.08;1.38;;;18.30;93.00;;;;;;5034445;28;20111;-81
2023/08/05 05:49:10;;;;;;;2.05;1.40;;;18.30;93.00;;;;;;5048708;28;20025;-80
2023/08/05 05:51:36;;;;;;;2.35;1.40;;;18.30;93.10;;;;;;5020508;28;20485;-81
2023/08/05 05:54:02;;;;;;;1.98;1.40;;;18.30;93.00;;;;;;5011533;28;20029;-79
2023/08/05 05:56:28;;;;;;;2.22;1.40;;;18.30;93.10;;;;;;5011439;28;20021;-80
2023/08/05 05:58:54;;;;;;;2.72;1.60;;;18.30;93.10;;;;;;5016142;28;20436;-79
2023/08/05 06:01:20;;;;;;;3.50;1.48;;;18.30;93.10;;;;;;5011743;28;20539;-79
2023/08/05 06:03:46;;;;;;;1.95;1.20;;;18.30;93.00;;;;;;5014417;28;20374;-80
2023/08/05 06:06:12;;;;;;;3.25;1.63;;;18.30;93.00;;;;;;5023859;28;20026;-80
2023/08/05 06:08:38;;;;;;;2.30;1.25;;;18.30;93.00;;;;;;5013430;28;20037;-79
2023/08/05 06:11:05;;;;;;;3.08;1.45;;;18.30;93.00;;;;;;5027555;28;20041;-80
2023/08/05 06:14:20;;;;;;;2.60;1.52;;;18.40;93.00;;;;;;5030905;28;20056;-80
2023/08/05 06:16:54;;;;;;;2.20;1.27;;;18.40;92.90;;;;;;5030877;28;20538;-79
2023/08/05 06:19:50;;;;;;;2.40;1.30;;;18.30;92.90;;;;;;5030217;28;20029;-81
2023/08/05 06:22:50;;;;;;;2.20;1.33;;;18.30;92.80;;;;;;5045515;28;20059;-80
2023/08/05 06:25:39;;;;;;;2.50;1.60;;;18.40;92.90;;;;;;5043903;28;20485;-79
2023/08/05 06:28:27;;;;;;;2.38;1.50;;;18.40;92.80;;;;;;5048718;28;20037;-79
2023/08/05 06:30:56;;;;;;;1.98;1.20;;;18.40;92.80;;;;;;5028644;28;20033;-79
2023/08/05 06:33:24;;;;;;;2.25;1.40;;;18.40;92.70;;;;;;5018944;28;20400;-78
2023/08/05 06:36:10;;;;;;;3.38;1.48;;;18.40;92.60;;;;;;5012737;28;20065;-78
2023/08/05 06:38:36;;;;;;;3.15;1.50;;;18.50;92.60;;;;;;4996181;28;20129;-79
2023/08/05 06:41:40;;;;;;;1.95;1.40;;;18.50;92.50;;;;;;5024884;28;20112;-79
2023/08/05 06:44:25;;;;;;;2.63;1.40;;;18.50;92.50;;;;;;5042575;28;20087;-79
2023/08/05 06:47:06;;;;;;;2.58;1.30;;;18.60;92.40;;;;;;5034714;28;20660;-79
2023/08/05 06:50:00;;;;;;;2.85;1.27;;;18.50;92.40;;;;;;5027654;28;20025;-80
2023/08/05 06:52:28;;;;;;;2.50;1.27;;;18.50;92.30;;;;;;5052669;28;20029;-78
2023/08/05 06:54:55;;;;;;;2.47;1.40;;;19.00;92.40;;;;;;5052243;28;20032;-80
2023/08/05 06:57:24;;;;;;;2.00;1.20;;;18.60;92.30;;;;;;5052410;28;20021;-80
2023/08/05 06:59:50;;;;;;;2.58;1.40;;;18.60;92.40;;;;;;5039127;28;20035;-79
2023/08/05 07:03:01;;;;;;;2.17;1.30;;;18.60;92.30;;;;;;5026942;28;20096;-79
2023/08/05 07:12:55;;;;;;;2.47;1.25;;;18.60;92.50;;;;;;5037773;28;20573;-79
2023/08/05 07:48:19;;;;;;;3.15;1.52;;;18.50;92.50;;;;;;5051586;28;20504;-82
2023/08/05 07:50:45;;;;;;;3.03;1.50;;;18.50;92.50;;;;;;5024313;28;20086;-81
2023/08/05 07:53:11;;;;;;;3.20;1.50;;;18.50;92.50;;;;;;5052513;28;20389;-82
2023/08/05 07:55:42;;;;;;;2.83;1.50;;;18.50;92.50;;;;;;5031931;28;20405;-81
2023/08/05 07:58:07;;;;;;;3.72;1.70;;;18.50;92.40;;;;;;5032351;28;20025;-82
2023/08/05 08:00:33;;;;;;;2.45;1.48;;;18.50;92.40;;;;;;5019751;28;20144;-82
2023/08/05 08:02:58;;;;;;;2.55;1.40;;;18.60;92.40;;;;;;5034958;28;20506;-82
2023/08/05 08:05:24;;;;;;;2.92;1.60;;;18.60;92.30;;;;;;5034074;28;20044;-80
2023/08/05 08:07:50;;;;;;;3.10;1.58;;;18.60;92.30;;;;;;5032900;28;20449;-83
2023/08/05 08:41:45;;;;;;;3.13;1.73;;;18.70;92.00;;;;;;5181900;22;20056;-82
2023/08/05 08:44:11;;;;;;;4.03;1.73;;;18.70;92.00;;;;;;5072322;28;20508;-82
2023/08/05 08:46:37;;;;;;;3.13;1.60;;;18.70;92.00;;;;;;5068920;28;20401;-82
2023/08/05 09:10:04;;;;;;;2.60;1.60;;;18.70;92.10;;;;;;4935925;28;20090;-83
2023/08/05 09:38:30;;;;;;;4.68;1.80;;;18.70;92.00;;;;;;4912046;29;20042;-83
2023/08/05 10:03:59;;;;;;;3.15;1.70;;;18.80;92.00;;;;;;4964759;28;20101;-81
2023/08/05 10:06:25;;;;;;;4.32;1.75;;;18.90;92.00;;;;;;4993154;28;20057;-81
2023/08/05 10:08:51;;;;;;;2.88;1.70;;;18.90;91.90;;;;;;4993752;28;20604;-83
2023/08/05 10:11:19;;;;;;;3.63;1.73;;;18.90;91.80;;;;;;4993862;28;20458;-82
2023/08/05 10:13:47;;;;;;;3.08;1.70;;;18.90;91.70;;;;;;4996311;28;20022;-82
2023/08/05 10:16:13;;;;;;;2.42;1.60;;;18.90;91.60;;;;;;4997781;28;20026;-82
2023/08/05 10:18:38;;;;;;;2.40;1.58;;;18.90;91.50;;;;;;4994535;28;20035;-82
2023/08/05 10:21:06;;;;;;;2.67;1.58;;;19.00;91.50;;;;;;4998177;28;20033;-83
2023/08/05 10:23:35;;;;;;;3.92;1.98;;;19.00;91.40;;;;;;4997313;28;20081;-80
2023/08/05 10:26:03;;;;;;;2.80;1.50;;;19.00;91.40;;;;;;4996584;28;20026;-83
2023/08/05 10:28:34;;;;;;;3.03;1.88;;;19.10;91.30;;;;;;4997389;28;20034;-81
2023/08/05 10:31:22;;;;;;;2.25;1.58;;;19.10;91.30;;;;;;4992996;28;20042;-81
2023/08/05 10:34:16;;;;;;;2.58;1.63;;;19.10;91.20;;;;;;4997699;28;20387;-83
2023/08/05 10:36:48;;;;;;;2.45;1.50;;;19.10;91.30;;;;;;4997636;28;20084;-84
2023/08/05 10:39:44;;;;;;;2.58;1.70;;;19.10;91.30;;;;;;4997620;28;20229;-81
2023/08/05 10:42:39;;;;;;;3.70;1.73;;;19.00;91.40;;;;;;4994846;28;20119;-83
2023/08/05 10:45:05;;;;;;;3.05;1.50;;;18.90;91.50;;;;;;4992244;28;20054;-84
2023/08/05 10:47:32;;;;;;;2.08;1.42;;;19.00;91.60;;;;;;4990038;28;20034;-81
2023/08/05 10:49:59;;;;;;;3.10;1.80;;;19.00;91.70;;;;;;4987185;28;20117;-81
2023/08/05 10:52:25;;;;;;;4.15;1.77;;;18.90;91.70;;;;;;4993635;28;20490;-85
2023/08/05 10:54:52;;;;;;;3.33;1.80;;;18.90;91.80;;;;;;4998122;28;20039;-82
2023/08/05 10:57:33;;;;;;;3.17;1.83;;;18.80;91.80;;;;;;4997236;28;20028;-82
2023/08/05 11:00:03;;;;;;;6.53;1.70;;;18.80;91.80;;;;;;4996177;28;20034;-81
2023/08/05 11:02:28;;;;;;;5.97;2.00;;;18.80;91.90;;;;;;4996811;28;20515;-80
2023/08/05 11:05:09;;;;;;;7.07;2.00;;;18.80;91.90;;;;;;4996539;28;20514;-82
2023/08/05 11:07:40;;;;;;;5.50;2.00;;;18.80;91.90;;;;;;5043095;23;20045;-80
2023/08/05 11:10:06;;;;;;;6.20;1.98;;;18.80;91.90;;;;;;5038119;28;20026;-81
2023/08/05 11:12:32;;;;;;;5.40;1.80;;;18.80;92.00;;;;;;5053078;28;20025;-80
2023/08/05 11:14:59;;;;;;;6.63;1.90;;;18.80;92.00;;;;;;5053895;28;20114;-81
2023/08/05 11:17:25;;;;;;;4.97;2.20;;;18.80;92.00;;;;;;5050578;28;20017;-80
2023/08/05 11:19:54;;;;;;;7.78;1.90;;;18.80;91.90;;;;;;5053987;28;20112;-79
2023/08/05 11:22:28;;;;;;;4.03;1.80;;;18.80;91.90;;;;;;5054049;28;20086;-81
2023/08/05 11:24:56;;;;;;;4.97;1.98;;;18.80;91.90;;;;;;5044889;28;20029;-79
2023/08/05 11:27:37;;;;;;;4.60;1.95;;;18.80;91.90;;;;;;5045363;28;20104;-79
2023/08/05 11:30:16;;;;;;;4.07;1.77;;;18.80;91.90;;;;;;5038528;28;20029;-80
2023/08/05 11:32:56;;;;;;;4.80;1.90;;;18.80;91.90;;;;;;5035278;28;20100;-78
2023/08/05 11:35:22;;;;;;;4.18;2.00;;;18.80;91.90;;;;;;5051398;28;20061;-79
2023/08/05 11:37:48;;;;;;;4.70;1.88;;;18.80;91.90;;;;;;5054240;28;20028;-80
2023/08/05 11:40:13;;;;;;;3.20;1.77;;;18.80;91.90;;;;;;5053720;28;20469;-79
2023/08/05 11:42:40;;;;;;;5.22;1.90;;;18.80;91.90;;;;;;5050541;28;20390;-80
2023/08/05 11:45:12;;;;;;;3.60;1.77;;;18.80;91.80;;;;;;5034565;28;20109;-80
2023/08/05 11:47:39;;;;;;;4.57;1.98;;;18.90;91.80;;;;;;5046009;28;20031;-81
2023/08/05 11:50:05;;;;;;;3.33;1.85;;;18.90;91.70;;;;;;5050369;28;20029;-80
2023/08/05 11:52:30;;;;;;;4.03;1.77;;;18.90;91.60;;;;;;5050398;28;20128;-81
2023/08/05 11:54:58;;;;;;;3.40;1.80;;;19.00;91.60;;;;;;5068644;28;20116;-80
2023/08/05 11:57:24;;;;;;;4.15;1.77;;;19.00;91.60;;;;;;5054328;28;20017;-78
2023/08/05 11:59:51;;;;;;;2.92;1.80;;;19.00;91.50;;;;;;5049194;28;20037;-81
2023/08/05 12:02:18;;;;;;;3.95;1.85;;;19.00;91.50;;;;;;5033525;28;20032;-80
2023/08/05 12:04:45;;;;;;;3.65;2.28;;;18.90;91.50;;;;;;5048599;28;20029;-79
2023/08/05 12:07:12;;;;;;;4.25;1.75;;;19.00;91.50;;;;;;5041582;28;20546;-82
2023/08/05 12:09:38;;;;;;;3.63;1.80;;;19.00;91.50;;;;;;5015028;28;20040;-80
2023/08/05 12:12:05;;;;;;;3.55;1.73;;;19.00;91.60;;;;;;5013531;28;20417;-78
2023/08/05 12:14:30;;;;;;;3.08;1.67;;;18.90;91.60;;;;;;5017328;28;20029;-81
2023/08/05 12:16:59;;;;;;;3.67;1.73;;;18.90;91.60;;;;;;5032354;28;20018;-80
2023/08/05 12:19:29;;;;;;;3.28;1.60;;;18.90;91.70;;;;;;5029110;28;20072;-78
2023/08/05 12:21:54;;;;;;;3.88;1.80;;;18.90;91.70;;;;;;5014748;28;20022;-79
2023/08/05 12:24:20;;;;;;;3.15;1.80;;;18.90;91.80;;;;;;5013215;28;20037;-80
2023/08/05 12:26:45;;;;;;;4.70;1.60;;;18.80;91.80;;;;;;5024651;28;20029;-79
2023/08/05 12:29:11;;;;;;;5.18;1.98;;;18.80;91.90;;;;;;5022255;28;20116;-81
2023/08/05 12:31:36;;;;;;;3.20;1.70;;;18.80;91.90;;;;;;5018581;28;20111;-80
2023/08/05 12:34:02;;;;;;;3.83;1.63;;;18.80;92.00;;;;;;5034029;28;20029;-80
2023/08/05 12:36:27;;;;;;;5.05;1.67;;;18.80;92.00;;;;;;5031845;28;20362;-80
2023/08/05 12:38:53;;;;;;;2.92;1.80;;;18.80;92.00;;;;;;5032583;28;20392;-80
2023/08/05 12:41:19;;;;;;;3.03;1.70;;;18.80;92.00;;;;;;5032827;28;20614;-80
2023/08/05 12:43:44;;;;;;;3.83;2.10;;;18.80;92.00;;;;;;5022460;28;20026;-80
2023/08/05 12:46:10;;;;;;;2.20;1.58;;;18.80;92.00;;;;;;5029531;28;20386;-80
2023/08/05 12:48:35;;;;;;;3.38;1.90;;;18.80;92.00;;;;;;5018341;28;20025;-80
2023/08/05 12:51:01;;;;;;;3.15;1.80;;;18.80;92.00;;;;;;5013937;28;20030;-80
2023/08/05 12:53:26;;;;;;;3.30;1.80;;;18.80;92.10;;;;;;5016540;28;20465;-78
2023/08/05 12:55:52;;;;;;;3.47;1.85;;;18.70;92.00;;;;;;5031957;28;20064;-80
2023/08/05 12:58:17;;;;;;;3.15;1.67;;;18.70;92.00;;;;;;5029031;28;20025;-79
2023/08/05 13:00:43;;;;;;;3.58;1.95;;;18.70;92.10;;;;;;5025976;28;20439;-80
2023/08/05 13:03:08;;;;;;;3.67;1.80;;;18.70;92.00;;;;;;5032439;28;20375;-80
2023/08/05 13:05:34;;;;;;;3.85;1.85;;;18.70;92.00;;;;;;5028980;28;20028;-81
2023/08/05 13:07:59;;;;;;;3.80;1.77;;;18.70;92.00;;;;;;5026324;28;20440;-80
2023/08/05 13:10:25;;;;;;;4.07;2.00;;;18.80;92.00;;;;;;5028739;28;20025;-80
2023/08/05 13:12:50;;;;;;;2.88;1.75;;;18.70;92.00;;;;;;5013571;28;20030;-80
2023/08/05 13:15:16;;;;;;;3.00;1.80;;;18.80;92.00;;;;;;5013675;28;20070;-79
2023/08/05 13:17:41;;;;;;;3.83;2.08;;;18.80;92.00;;;;;;5031233;28;20021;-80
2023/08/05 13:20:08;;;;;;;4.00;1.90;;;18.80;92.00;;;;;;5033108;28;20514;-79
2023/08/05 13:22:33;;;;;;;4.38;1.88;;;18.80;91.90;;;;;;5029761;28;20111;-80
2023/08/05 13:25:01;;;;;;;2.30;1.60;;;18.80;91.90;;;;;;5033030;28;20420;-79
2023/08/05 13:27:27;;;;;;;3.55;2.00;;;18.80;91.80;;;;;;5023487;28;20073;-79
2023/08/05 13:29:53;;;;;;;3.35;1.70;;;18.80;91.80;;;;;;5028578;28;20129;-81
2023/08/05 13:32:18;;;;;;;2.58;1.55;;;18.90;91.70;;;;;;5011953;28;20018;-80
2023/08/05 13:34:44;;;;;;;3.17;1.55;;;18.90;91.60;;;;;;5025647;28;20033;-81
2023/08/05 13:37:09;;;;;;;2.83;1.70;;;18.90;91.60;;;;;;5030921;28;20030;-79
2023/08/05 13:39:35;;;;;;;2.75;1.60;;;18.90;91.60;;;;;;5028196;28;20022;-80
2023/08/05 13:42:00;;;;;;;3.03;1.60;;;18.90;91.50;;;;;;5013343;28;20036;-80
2023/08/05 13:44:26;;;;;;;3.47;1.80;;;18.90;91.50;;;;;;5031544;28;20025;-80
2023/08/05 13:46:52;;;;;;;3.67;1.77;;;19.00;91.60;;;;;;5030907;28;20131;-81
2023/08/05 13:49:18;;;;;;;2.67;1.80;;;19.00;91.50;;;;;;5022151;28;20036;-80
2023/08/05 13:51:43;;;;;;;3.40;1.85;;;19.00;91.50;;;;;;5028100;28;20053;-80
2023/08/05 13:54:10;;;;;;;2.17;1.70;;;18.90;91.60;;;;;;5011466;28;20115;-79
2023/08/05 13:56:36;;;;;;;2.40;1.58;;;18.90;91.60;;;;;;5023360;28;20026;-81
2023/08/05 13:59:02;;;;;;;2.75;1.70;;;18.90;91.60;;;;;;5016919;28;20026;-81
2023/08/05 14:01:28;;;;;;;2.70;1.60;;;18.90;91.60;;;;;;5026214;28;20410;-81
2023/08/05 14:03:53;;;;;;;3.25;1.70;;;18.90;91.70;;;;;;5011511;28;20061;-80
2023/08/05 14:06:19;;;;;;;2.40;1.70;;;18.90;91.70;;;;;;5014074;28;20014;-79
2023/08/05 14:08:44;;;;;;;2.85;1.90;;;18.80;91.70;;;;;;5042727;28;20043;-80
2023/08/05 14:11:10;;;;;;;3.55;1.90;;;18.80;91.70;;;;;;5054590;28;20017;-79
2023/08/05 14:13:36;;;;;;;3.20;1.90;;;18.80;91.80;;;;;;5059312;28;20021;-80
2023/08/05 14:16:02;;;;;;;2.70;1.60;;;18.80;91.80;;;;;;5033975;28;20526;-80
2023/08/05 14:18:27;;;;;;;3.70;1.90;;;18.80;91.80;;;;;;5051141;28;20032;-80
2023/08/05 14:20:56;;;;;;;3.28;1.83;;;18.80;91.80;;;;;;5051028;28;20017;-80
2023/08/05 14:23:22;;;;;;;1.77;1.40;;;18.80;91.80;;;;;;5035996;28;20025;-80
2023/08/05 14:25:47;;;;;;;2.70;1.77;;;18.80;91.80;;;;;;5053778;28;20029;-80
2023/08/05 14:28:13;;;;;;;2.30;1.60;;;18.80;91.80;;;;;;5072010;28;20039;-79
2023/08/05 14:30:40;;;;;;;2.85;1.80;;;18.80;91.80;;;;;;5054266;28;20025;-81
2023/08/05 14:33:06;;;;;;;2.92;1.88;;;18.80;91.80;;;;;;5053909;28;20031;-80
2023/08/05 14:35:35;;;;;;;2.38;1.67;;;18.80;91.80;;;;;;5034855;28;20028;-78
2023/08/05 14:38:02;;;;;;;2.03;1.60;;;18.80;91.80;;;;;;5066769;28;20078;-78
2023/08/05 14:40:35;;;;;;;2.40;1.50;;;18.80;91.80;;;;;;5034278;28;20070;-80
2023/08/05 14:43:02;;;;;;;3.05;1.80;;;18.80;91.80;;;;;;5036742;28;20025;-78
2023/08/05 14:45:27;;;;;;;2.53;1.58;;;18.80;91.80;;;;;;5050742;28;20032;-80
2023/08/05 14:47:53;;;;;;;2.83;1.63;;;18.80;91.80;;;;;;5071523;28;20392;-79
2023/08/05 14:50:19;;;;;;;3.00;1.77;;;18.80;91.90;;;;;;5037636;28;20473;-81
2023/08/05 14:52:48;;;;;;;2.00;1.58;;;18.80;91.90;;;;;;5053544;28;20033;-80
2023/08/05 14:55:14;;;;;;;2.70;1.80;;;18.80;91.80;;;;;;5033321;28;20029;-81
2023/08/05 14:57:39;;;;;;;2.92;1.80;;;18.80;91.90;;;;;;5046987;28;20094;-80
2023/08/05 15:00:06;;;;;;;3.00;1.70;;;18.80;91.80;;;;;;5040827;28;20489;-80
2023/08/05 15:02:32;;;;;;;2.50;1.60;;;18.80;91.80;;;;;;5037837;28;20029;-79
2023/08/05 15:04:58;;;;;;;3.38;1.90;;;18.80;91.70;;;;;;5055329;28;20159;-81
2023/08/05 15:07:24;;;;;;;2.42;1.40;;;18.80;91.70;;;;;;5053286;28;20033;-79
2023/08/05 15:09:49;;;;;;;2.42;1.70;;;18.90;91.60;;;;;;5042348;28;20032;-79
2023/08/05 15:12:15;;;;;;;2.53;1.70;;;18.80;91.60;;;;;;5037731;28;20029;-80